createdAt,value
2018-10-12T00:00:12.706Z,12.85
2018-10-12T00:02:42.547Z,12.64
2018-10-12T00:05:11.799Z,12.56
2018-10-12T00:07:40.995Z,12.59
2018-10-12T00:10:10.130Z,12.66
2018-10-12T00:12:38.864Z,12.66
2018-10-12T00:15:07.811Z,12.65
2018-10-12T00:17:36.914Z,12.78
2018-10-12T00:20:06.514Z,12.81
2018-10-12T00:22:35.177Z,12.67
2018-10-12T00:25:03.865Z,12.60
2018-10-12T00:27:32.854Z,12.52
2018-10-12T00:30:01.546Z,12.46
2018-10-12T00:32:30.205Z,12.39
2018-10-12T00:34:58.841Z,12.47
2018-10-12T00:37:27.433Z,12.53
2018-10-12T00:39:56.074Z,12.43
2018-10-12T00:42:24.778Z,12.41
2018-10-12T00:44:53.456Z,12.49
2018-10-12T00:47:22.205Z,12.47
2018-10-12T00:49:50.946Z,12.45
2018-10-12T00:52:19.620Z,12.46
2018-10-12T00:54:48.283Z,12.53
2018-10-12T00:57:17.017Z,12.46
2018-10-12T00:59:45.753Z,12.41
2018-10-12T01:02:14.422Z,12.50
2018-10-12T01:04:43.094Z,12.75
2018-10-12T01:07:11.755Z,12.74
2018-10-12T01:09:40.505Z,12.63
2018-10-12T01:12:27.636Z,12.55
2018-10-12T01:14:56.337Z,12.62
2018-10-12T01:17:25.098Z,12.64
2018-10-12T01:19:54.170Z,12.61
2018-10-12T01:22:22.922Z,12.77
2018-10-12T01:24:51.615Z,12.74
2018-10-12T01:27:20.281Z,12.74
2018-10-12T01:29:49.158Z,12.78
2018-10-12T01:32:23.039Z,12.77
2018-10-12T01:34:52.046Z,12.73
2018-10-12T01:37:20.673Z,12.78
2018-10-12T01:39:49.468Z,12.72
2018-10-12T01:42:18.173Z,12.65
2018-10-12T01:44:46.881Z,12.58
2018-10-12T01:47:15.685Z,12.60
2018-10-12T01:49:44.361Z,12.53
2018-10-12T01:52:13.798Z,12.60
2018-10-12T01:54:42.748Z,12.49
2018-10-12T01:57:12.276Z,12.38
2018-10-12T01:59:41.241Z,12.39
2018-10-12T02:02:09.963Z,12.43
2018-10-12T02:04:38.615Z,12.36
2018-10-12T02:07:07.280Z,12.37
2018-10-12T02:09:35.905Z,12.39
2018-10-12T02:12:04.682Z,12.30
2018-10-12T02:14:33.470Z,12.37
2018-10-12T02:17:02.138Z,12.49
2018-10-12T02:19:31.144Z,12.56
2018-10-12T02:21:59.853Z,12.62
2018-10-12T02:24:28.545Z,12.62
2018-10-12T02:26:57.221Z,12.62
2018-10-12T02:29:25.904Z,12.62
2018-10-12T02:31:54.577Z,12.55
2018-10-12T02:34:23.257Z,12.63
2018-10-12T02:36:51.928Z,12.69
2018-10-12T02:39:20.698Z,12.67
2018-10-12T02:41:49.369Z,12.65
2018-10-12T02:44:18.013Z,12.55
2018-10-12T02:46:46.724Z,12.39
2018-10-12T02:49:15.386Z,12.15
2018-10-12T02:51:44.066Z,11.86
2018-10-12T02:54:12.720Z,11.78
2018-10-12T02:56:41.324Z,11.82
2018-10-12T02:59:10.009Z,11.93
2018-10-12T03:01:38.634Z,11.96
2018-10-12T03:04:07.507Z,11.95
2018-10-12T03:06:36.122Z,11.93
2018-10-12T03:09:07.237Z,11.85
2018-10-12T03:11:36.015Z,11.81
2018-10-12T03:14:04.683Z,11.98
2018-10-12T03:16:33.406Z,12.08
2018-10-12T03:19:02.174Z,12.12
2018-10-12T03:21:31.208Z,12.00
2018-10-12T03:23:59.945Z,11.93
2018-10-12T03:26:28.671Z,11.95
2018-10-12T03:28:57.439Z,11.95
2018-10-12T03:31:26.566Z,11.92
2018-10-12T03:33:55.417Z,11.98
2018-10-12T03:36:24.223Z,12.08
2018-10-12T03:38:52.920Z,12.02
2018-10-12T03:41:21.568Z,11.95
2018-10-12T03:43:50.248Z,12.02
2018-10-12T03:46:18.954Z,12.08
2018-10-12T03:48:47.715Z,12.22
2018-10-12T03:51:16.542Z,12.28
2018-10-12T03:53:45.343Z,12.27
2018-10-12T03:56:14.084Z,12.22
2018-10-12T03:58:42.810Z,12.34
2018-10-12T04:01:11.513Z,12.42
2018-10-12T04:03:40.439Z,12.39
2018-10-12T04:06:09.136Z,12.55
2018-10-12T04:08:38.476Z,12.58
2018-10-12T04:11:07.144Z,12.84
2018-10-12T04:13:35.764Z,12.90
2018-10-12T04:16:04.524Z,13.02
2018-10-12T04:18:33.229Z,13.14
2018-10-12T04:21:01.884Z,13.07
2018-10-12T04:23:30.614Z,12.81
2018-10-12T04:25:59.283Z,12.57
2018-10-12T04:28:27.976Z,12.61
2018-10-12T04:30:56.871Z,12.82
2018-10-12T04:33:25.520Z,12.88
2018-10-12T04:35:54.273Z,12.66
2018-10-12T04:38:23.022Z,12.61
2018-10-12T04:41:03.177Z,12.65
2018-10-12T04:43:32.555Z,12.62
2018-10-12T04:46:02.361Z,12.72
2018-10-12T04:48:31.244Z,12.89
2018-10-12T04:51:00.565Z,13.01
2018-10-12T04:53:29.501Z,12.84
2018-10-12T04:55:58.361Z,12.93
2018-10-12T04:58:27.204Z,13.00
2018-10-12T05:00:56.033Z,13.09
2018-10-12T05:03:24.801Z,13.21
2018-10-12T05:05:53.582Z,13.22
2018-10-12T05:08:22.906Z,13.26
2018-10-12T05:10:51.706Z,13.18
2018-10-12T05:13:20.516Z,13.25
2018-10-12T05:15:49.297Z,13.51
2018-10-12T05:18:18.066Z,13.62
2018-10-12T05:20:46.787Z,13.91
2018-10-12T05:23:15.527Z,14.46
2018-10-12T05:25:44.351Z,14.85
2018-10-12T05:28:13.413Z,15.42
2018-10-12T05:30:42.349Z,15.77
2018-10-12T05:33:11.425Z,16.10
2018-10-12T05:35:40.068Z,16.16
2018-10-12T05:38:09.050Z,16.36
2018-10-12T05:40:38.064Z,16.47
2018-10-12T05:43:06.934Z,16.52
2018-10-12T05:45:35.641Z,16.90
2018-10-12T05:48:15.467Z,16.64
2018-10-12T05:50:44.722Z,16.29
2018-10-12T05:53:14.052Z,16.07
2018-10-12T05:55:43.060Z,16.50
2018-10-12T05:58:11.885Z,16.83
2018-10-12T06:00:40.682Z,17.12
2018-10-12T06:03:09.486Z,17.45
2018-10-12T06:05:38.270Z,17.53
2018-10-12T06:08:07.034Z,17.43
2018-10-12T06:10:36.092Z,17.52
2018-10-12T06:13:04.805Z,17.42
2018-10-12T06:15:33.569Z,17.33
2018-10-12T06:18:02.355Z,16.73
2018-10-12T06:20:31.098Z,16.15
2018-10-12T06:22:59.831Z,15.96
2018-10-12T06:25:28.529Z,15.85
2018-10-12T06:27:57.266Z,15.63
2018-10-12T06:30:25.993Z,15.82
2018-10-12T06:32:54.815Z,15.70
2018-10-12T06:35:23.705Z,16.04
2018-10-12T06:37:52.397Z,16.52
2018-10-12T06:40:21.483Z,16.31
2018-10-12T06:42:50.504Z,16.31
2018-10-12T06:45:19.261Z,16.32
2018-10-12T06:47:48.701Z,16.31
2018-10-12T06:50:17.486Z,16.60
2018-10-12T06:52:46.438Z,17.28
2018-10-12T06:55:15.273Z,17.97
2018-10-12T06:57:44.976Z,18.77
2018-10-12T07:00:16.890Z,19.25
2018-10-12T07:02:45.687Z,19.26
2018-10-12T07:05:14.838Z,19.36
2018-10-12T07:07:44.153Z,19.37
2018-10-12T07:10:13.007Z,19.75
2018-10-12T07:12:41.785Z,20.00
2018-10-12T07:15:10.671Z,20.23
2018-10-12T07:17:39.807Z,19.87
2018-10-12T07:20:08.691Z,19.71
2018-10-12T07:22:37.542Z,19.87
2018-10-12T07:25:06.359Z,20.02
2018-10-12T07:27:36.814Z,20.62
2018-10-12T07:30:08.945Z,20.44
2018-10-12T07:32:38.470Z,20.64
2018-10-12T07:35:07.533Z,21.01
2018-10-12T07:37:42.386Z,21.30
2018-10-12T07:40:21.880Z,21.41
2018-10-12T07:42:50.657Z,21.20
2018-10-12T07:45:19.589Z,21.14
2018-10-12T07:47:48.419Z,20.87
2018-10-12T07:50:17.249Z,20.94
2018-10-12T07:52:46.022Z,20.83
2018-10-12T07:55:19.321Z,21.31
2018-10-12T07:58:06.368Z,21.82
2018-10-12T08:00:35.254Z,21.99
2018-10-12T08:03:03.996Z,22.17
2018-10-12T08:05:32.694Z,21.19
2018-10-12T08:08:02.233Z,20.87
2018-10-12T08:10:31.097Z,21.62
2018-10-12T08:12:59.985Z,21.73
2018-10-12T08:15:32.814Z,21.35
2018-10-12T08:18:02.536Z,21.28
2018-10-12T08:20:31.777Z,20.84
2018-10-12T08:23:00.442Z,20.48
2018-10-12T08:25:29.264Z,19.83
2018-10-12T08:27:58.013Z,19.75
2018-10-12T08:30:26.881Z,20.12
2018-10-12T08:32:55.946Z,20.34
2018-10-12T08:35:24.776Z,20.83
2018-10-12T08:37:53.562Z,21.08
2018-10-12T08:40:22.302Z,20.78
2018-10-12T08:42:51.205Z,19.71
2018-10-12T08:45:19.883Z,20.60
2018-10-12T08:47:48.695Z,21.12
2018-10-12T08:50:17.393Z,21.32
2018-10-12T08:52:46.435Z,21.70
2018-10-12T08:55:15.382Z,22.31
2018-10-12T08:57:44.306Z,22.48
2018-10-12T09:00:13.822Z,22.46
2018-10-12T09:02:42.535Z,22.86
2018-10-12T09:05:12.455Z,22.74
2018-10-12T09:07:41.321Z,22.64
2018-10-12T09:10:10.130Z,22.52
2018-10-12T09:12:39.254Z,21.91
2018-10-12T09:15:08.210Z,22.65
2018-10-12T09:17:36.973Z,22.85
2018-10-12T09:20:07.325Z,22.81
2018-10-12T09:22:36.356Z,21.24
2018-10-12T09:25:05.326Z,21.76
2018-10-12T09:27:34.500Z,21.40
2018-10-12T09:30:06.534Z,21.20
2018-10-12T09:32:35.149Z,21.26
2018-10-12T09:35:03.905Z,21.48
2018-10-12T09:37:32.557Z,21.45
2018-10-12T09:40:01.298Z,21.58
2018-10-12T09:42:30.071Z,21.43
2018-10-12T09:44:58.969Z,21.55
2018-10-12T09:47:27.863Z,21.59
2018-10-12T09:49:56.709Z,22.14
2018-10-12T09:52:25.365Z,21.43
2018-10-12T09:54:54.470Z,21.06
2018-10-12T09:57:26.165Z,21.42
2018-10-12T09:59:55.443Z,21.29
2018-10-12T10:03:26.925Z,20.99
2018-10-12T10:05:55.560Z,22.14
2018-10-12T10:08:24.379Z,21.47
2018-10-12T10:10:53.056Z,20.73
2018-10-12T10:13:21.709Z,20.84
2018-10-12T10:15:50.438Z,21.95
2018-10-12T10:18:20.204Z,22.71
2018-10-12T10:20:48.845Z,23.08
2018-10-12T10:23:17.858Z,23.37
2018-10-12T10:25:46.785Z,23.50
2018-10-12T10:28:15.543Z,22.11
2018-10-12T10:30:44.282Z,20.84
2018-10-12T10:33:13.069Z,21.27
2018-10-12T10:35:41.766Z,21.53
2018-10-12T10:38:10.476Z,21.28
2018-10-12T10:40:39.143Z,20.84
2018-10-12T10:43:07.834Z,20.80
2018-10-12T10:45:36.605Z,21.67
2018-10-12T10:48:05.307Z,21.34
2018-10-12T10:50:34.397Z,20.66
2018-10-12T10:53:03.160Z,20.24
2018-10-12T10:55:31.879Z,20.48
2018-10-12T10:58:00.586Z,21.30
2018-10-12T11:00:29.386Z,22.30
2018-10-12T11:02:58.458Z,23.07
2018-10-12T11:05:27.516Z,22.94
2018-10-12T11:07:56.137Z,21.99
2018-10-12T11:10:24.856Z,21.29
2018-10-12T11:12:53.641Z,20.91
2018-10-12T11:15:22.348Z,21.24
2018-10-12T11:17:51.061Z,22.29
2018-10-12T11:20:19.829Z,22.60
2018-10-12T11:22:48.665Z,22.68
2018-10-12T11:25:17.376Z,21.96
2018-10-12T11:27:46.163Z,22.35
2018-10-12T11:30:14.903Z,22.62
2018-10-12T11:32:43.770Z,22.51
2018-10-12T11:35:12.440Z,22.65
2018-10-12T11:37:41.155Z,22.83
2018-10-12T11:40:09.981Z,23.03
2018-10-12T11:42:49.751Z,22.71
2018-10-12T11:45:18.588Z,22.50
2018-10-12T11:47:48.468Z,22.54
2018-10-12T11:50:17.236Z,22.56
2018-10-12T11:52:46.051Z,22.72
2018-10-12T11:55:15.029Z,22.72
2018-10-12T11:57:43.650Z,22.32
2018-10-12T12:00:12.425Z,22.74
2018-10-12T12:02:41.066Z,22.98
2018-10-12T12:05:10.080Z,22.89
2018-10-12T12:07:38.877Z,22.58
2018-10-12T12:10:07.863Z,22.22
2018-10-12T12:12:37.033Z,22.68
2018-10-12T12:15:06.105Z,22.85
2018-10-12T12:17:34.839Z,23.00
2018-10-12T12:20:03.589Z,23.20
2018-10-12T12:22:32.265Z,23.19
2018-10-12T12:25:00.985Z,22.18
2018-10-12T12:27:29.940Z,22.13
2018-10-12T12:29:59.287Z,22.48
2018-10-12T12:32:27.947Z,22.33
2018-10-12T12:34:57.301Z,21.96
2018-10-12T12:37:25.983Z,22.00
2018-10-12T12:39:54.619Z,22.35
2018-10-12T12:42:23.288Z,22.68
2018-10-12T12:44:52.077Z,22.56
2018-10-12T12:47:21.167Z,22.21
2018-10-12T12:49:49.777Z,22.49
2018-10-12T12:52:18.502Z,22.48
2018-10-12T12:54:47.253Z,22.34
2018-10-12T12:57:16.266Z,22.24
2018-10-12T12:59:44.926Z,22.22
2018-10-12T13:02:13.564Z,21.76
2018-10-12T13:04:43.362Z,21.24
2018-10-12T13:07:12.006Z,21.43
2018-10-12T13:09:40.616Z,21.44
2018-10-12T13:12:09.406Z,21.12
2018-10-12T13:14:38.323Z,20.78
2018-10-12T13:17:07.009Z,20.63
2018-10-12T13:19:36.094Z,20.70
2018-10-12T13:22:04.817Z,20.56
2018-10-12T13:24:33.471Z,20.63
2018-10-12T13:27:02.187Z,20.56
2018-10-12T13:29:30.831Z,20.73
2018-10-12T13:31:59.496Z,20.74
2018-10-12T13:34:28.160Z,19.32
2018-10-12T13:36:56.940Z,20.75
2018-10-12T13:39:25.592Z,20.73
2018-10-12T13:41:54.222Z,20.61
2018-10-12T13:44:22.899Z,20.42
2018-10-12T13:46:51.524Z,20.15
2018-10-12T13:49:20.170Z,20.14
2018-10-12T13:51:48.857Z,20.14
2018-10-12T13:54:17.526Z,20.28
2018-10-12T13:56:46.185Z,20.43
2018-10-12T13:59:15.229Z,20.27
2018-10-12T14:01:44.278Z,20.22
2018-10-12T14:04:13.258Z,20.10
2018-10-12T14:06:41.999Z,20.01
2018-10-12T14:09:10.656Z,19.96
2018-10-12T14:11:39.311Z,19.88
2018-10-12T14:14:07.974Z,19.83
2018-10-12T14:16:36.657Z,19.72
2018-10-12T14:19:05.603Z,19.66
2018-10-12T14:21:34.127Z,19.52
2018-10-12T14:24:04.214Z,19.54
2018-10-12T14:26:32.928Z,19.59
2018-10-12T14:29:01.600Z,19.59
2018-10-12T14:31:30.239Z,19.44
2018-10-12T14:33:58.896Z,19.43
2018-10-12T14:36:27.510Z,19.26
2018-10-12T14:38:56.241Z,19.16
2018-10-12T14:41:24.851Z,19.00
2018-10-12T14:43:53.560Z,18.98
2018-10-12T14:46:22.214Z,18.88
2018-10-12T14:48:50.951Z,18.88
2018-10-12T14:51:20.556Z,18.75
2018-10-12T14:53:49.149Z,18.69
2018-10-12T14:56:17.868Z,18.67
2018-10-12T14:58:46.671Z,18.68
2018-10-12T15:01:15.404Z,18.62
2018-10-12T15:03:44.137Z,18.52
2018-10-12T15:06:13.105Z,18.49
2018-10-12T15:08:41.802Z,18.48
2018-10-12T15:11:10.492Z,18.48
2018-10-12T15:13:39.181Z,18.42
2018-10-12T15:16:07.931Z,18.30
2018-10-12T15:18:36.606Z,18.26
2018-10-12T15:21:05.399Z,18.31
2018-10-12T15:23:34.054Z,18.14
2018-10-12T15:26:02.769Z,18.12
2018-10-12T15:28:31.499Z,18.06
2018-10-12T15:31:00.161Z,17.96
2018-10-12T15:33:28.841Z,17.87
2018-10-12T15:35:57.531Z,17.83
2018-10-12T15:38:26.254Z,17.71
2018-10-12T15:40:54.956Z,17.56
2018-10-12T15:43:23.665Z,17.04
2018-10-12T15:45:52.333Z,17.36
2018-10-12T15:48:21.124Z,17.31
2018-10-12T15:50:49.847Z,17.21
2018-10-12T15:53:18.708Z,17.16
2018-10-12T15:55:47.348Z,17.14
2018-10-12T15:58:16.030Z,17.08
2018-10-12T16:00:44.726Z,17.05
2018-10-12T16:03:13.685Z,17.02
2018-10-12T16:05:42.437Z,16.93
2018-10-12T16:08:11.125Z,16.86
2018-10-12T16:10:39.910Z,16.81
2018-10-12T16:13:08.646Z,16.75
2018-10-12T16:15:37.363Z,16.66
2018-10-12T16:18:06.046Z,16.64
2018-10-12T16:20:35.042Z,16.59
2018-10-12T16:23:03.752Z,16.52
2018-10-12T16:25:54.101Z,16.47
2018-10-12T16:28:23.698Z,16.44
2018-10-12T16:30:53.325Z,16.40
2018-10-12T16:33:22.476Z,16.36
2018-10-12T16:35:52.506Z,16.34
2018-10-12T16:38:22.199Z,16.33
2018-10-12T16:40:51.123Z,16.36
2018-10-12T16:43:19.814Z,16.36
2018-10-12T16:45:49.711Z,16.36
2018-10-12T16:48:18.430Z,16.35
2018-10-12T16:50:47.251Z,16.41
2018-10-12T16:53:16.123Z,16.46
2018-10-12T16:55:44.983Z,16.45
2018-10-12T16:58:14.491Z,16.45
2018-10-12T17:00:43.415Z,16.48
2018-10-12T17:03:12.127Z,16.50
2018-10-12T17:05:40.864Z,16.50
2018-10-12T17:08:09.815Z,16.51
2018-10-12T17:10:38.495Z,16.50
2018-10-12T17:13:07.180Z,16.58
2018-10-12T17:15:35.874Z,16.61
2018-10-12T17:18:04.846Z,16.55
2018-10-12T17:20:33.483Z,16.51
2018-10-12T17:23:02.157Z,16.51
2018-10-12T17:25:30.797Z,16.49
2018-10-12T17:27:59.481Z,16.48
2018-10-12T17:30:28.210Z,16.49
2018-10-12T17:32:56.902Z,16.56
2018-10-12T17:35:25.583Z,16.57
2018-10-12T17:37:54.203Z,16.55
2018-10-12T17:40:22.903Z,16.55
2018-10-12T17:42:51.914Z,16.53
2018-10-12T17:45:20.583Z,16.48
2018-10-12T17:47:49.565Z,16.50
2018-10-12T17:50:18.216Z,16.50
2018-10-12T17:52:46.900Z,16.49
2018-10-12T17:55:15.568Z,16.49
2018-10-12T17:57:44.245Z,16.49
2018-10-12T18:00:15.563Z,16.48
2018-10-12T18:02:44.136Z,16.46
2018-10-12T18:05:12.742Z,16.48
2018-10-12T18:07:41.471Z,16.47
2018-10-12T18:10:11.057Z,16.49
2018-10-12T18:12:39.734Z,16.55
2018-10-12T18:15:10.467Z,16.52
2018-10-12T18:17:39.761Z,16.47
2018-10-12T18:20:08.987Z,16.50
2018-10-12T18:22:37.668Z,16.43
2018-10-12T18:25:06.750Z,16.37
2018-10-12T18:27:35.422Z,16.33
2018-10-12T18:30:08.193Z,16.22
2018-10-12T18:32:37.243Z,16.17
2018-10-12T18:35:06.146Z,16.14
2018-10-12T18:37:34.875Z,16.09
2018-10-12T18:40:03.917Z,16.07
2018-10-12T18:42:32.995Z,16.05
2018-10-12T18:45:02.349Z,16.08
2018-10-12T18:47:31.049Z,16.08
2018-10-12T18:49:59.734Z,16.03
2018-10-12T18:52:28.423Z,16.03
2018-10-12T18:54:57.119Z,16.08
2018-10-12T18:57:25.855Z,16.01
2018-10-12T18:59:54.591Z,15.99
2018-10-12T19:02:23.272Z,15.97
2018-10-12T19:04:51.982Z,15.93
2018-10-12T19:07:20.638Z,15.96
2018-10-12T19:09:49.310Z,15.92
2018-10-12T19:12:17.989Z,15.89
2018-10-12T19:14:46.892Z,15.81
2018-10-12T19:17:16.393Z,15.79
2018-10-12T19:19:45.151Z,15.76
2018-10-12T19:22:14.198Z,15.75
2018-10-12T19:24:42.980Z,15.76
2018-10-12T19:27:11.607Z,15.74
2018-10-12T19:29:40.652Z,15.65
2018-10-12T19:32:09.377Z,15.61
2018-10-12T19:34:38.777Z,15.52
2018-10-12T19:37:07.710Z,15.44
2018-10-12T19:39:36.350Z,15.39
2018-10-12T19:42:05.013Z,15.36
2018-10-12T19:44:33.655Z,15.36
2018-10-12T19:47:02.288Z,15.28
2018-10-12T19:49:30.965Z,15.22
2018-10-12T19:51:59.991Z,15.15
2018-10-12T19:54:28.952Z,15.08
2018-10-12T19:56:57.599Z,15.01
2018-10-12T19:59:26.259Z,14.96
2018-10-12T20:01:55.039Z,14.91
2018-10-12T20:04:23.738Z,13.61
2018-10-12T20:06:52.365Z,14.83
2018-10-12T20:09:20.997Z,14.75
2018-10-12T20:11:49.671Z,14.65
2018-10-12T20:14:18.345Z,14.57
2018-10-12T20:16:46.987Z,14.55
2018-10-12T20:19:17.946Z,14.56
2018-10-12T20:21:46.673Z,14.54
2018-10-12T20:24:15.704Z,14.52
2018-10-12T20:26:44.333Z,14.51
2018-10-12T20:29:13.278Z,14.50
2018-10-12T20:31:42.080Z,14.49
2018-10-12T20:34:10.665Z,14.49
2018-10-12T20:36:39.359Z,14.48
2018-10-12T20:39:09.580Z,14.47
2018-10-12T20:41:38.766Z,14.48
2018-10-12T20:44:07.682Z,14.52
2018-10-12T20:46:36.924Z,14.52
2018-10-12T20:49:05.584Z,14.55
2018-10-12T20:51:34.197Z,14.55
2018-10-12T20:54:02.973Z,14.59
2018-10-12T20:56:31.608Z,14.26
2018-10-12T20:59:00.276Z,14.61
2018-10-12T21:01:28.944Z,14.64
2018-10-12T21:03:57.642Z,14.67
2018-10-12T21:06:26.308Z,14.66
2018-10-12T21:08:55.000Z,14.64
2018-10-12T21:11:23.889Z,14.62
2018-10-12T21:13:52.490Z,14.65
2018-10-12T21:16:21.160Z,14.72
2018-10-12T21:18:49.866Z,14.76
2018-10-12T21:21:18.558Z,14.78
2018-10-12T21:23:47.539Z,14.77
2018-10-12T21:26:16.596Z,14.78
2018-10-12T21:28:45.608Z,14.80
2018-10-12T21:31:14.675Z,14.80
2018-10-12T21:33:43.732Z,14.86
2018-10-12T21:36:12.725Z,14.88
2018-10-12T21:38:41.434Z,14.94
2018-10-12T21:41:10.081Z,14.97
2018-10-12T21:43:39.530Z,15.01
2018-10-12T21:46:08.181Z,15.05
2018-10-12T21:48:36.823Z,14.98
2018-10-12T21:51:05.786Z,14.93
2018-10-12T21:53:34.751Z,14.89
2018-10-12T21:56:03.681Z,14.84
2018-10-12T21:58:32.348Z,14.79
2018-10-12T22:01:04.882Z,14.75
2018-10-12T22:03:35.265Z,14.67
2018-10-12T22:06:04.173Z,14.59
2018-10-12T22:08:38.059Z,14.56
2018-10-12T22:11:07.099Z,14.53
2018-10-12T22:13:36.328Z,14.44
2018-10-12T22:16:05.150Z,14.35
2018-10-12T22:18:33.814Z,14.33
2018-10-12T22:21:03.087Z,14.30
2018-10-12T22:23:31.852Z,14.29
2018-10-12T22:26:01.312Z,14.26
2018-10-12T22:28:29.979Z,14.28
2018-10-12T22:30:58.640Z,14.20
2018-10-12T22:33:27.656Z,14.15
2018-10-12T22:35:56.375Z,14.15
2018-10-12T22:38:25.085Z,14.25
2018-10-12T22:40:53.813Z,14.33
2018-10-12T22:43:22.856Z,14.26
2018-10-12T22:45:51.526Z,14.21
2018-10-12T22:48:20.188Z,14.20
2018-10-12T22:50:48.830Z,14.20
2018-10-12T22:53:17.578Z,14.20
2018-10-12T22:55:46.203Z,14.06
2018-10-12T22:58:14.810Z,14.05
2018-10-12T23:00:43.484Z,14.02
2018-10-12T23:03:12.163Z,14.00
2018-10-12T23:05:41.020Z,13.88
2018-10-12T23:08:09.665Z,13.84
2018-10-12T23:10:38.314Z,13.93
2018-10-12T23:13:06.964Z,13.91
2018-10-12T23:15:35.660Z,13.87
2018-10-12T23:18:04.401Z,13.79
2018-10-12T23:20:33.117Z,13.80
2018-10-12T23:23:02.081Z,13.72
2018-10-12T23:25:30.792Z,13.71
2018-10-12T23:27:59.449Z,13.72
2018-10-12T23:30:28.122Z,13.75
2018-10-12T23:33:06.925Z,13.70
2018-10-12T23:35:35.581Z,13.66
2018-10-12T23:38:04.284Z,13.64
2018-10-12T23:40:32.994Z,13.62
2018-10-12T23:43:01.904Z,13.58
2018-10-12T23:45:30.821Z,13.53
2018-10-12T23:47:59.571Z,13.58
2018-10-12T23:50:28.297Z,13.63
2018-10-12T23:52:57.175Z,13.70
2018-10-12T23:55:25.846Z,13.68
2018-10-12T23:57:54.504Z,13.54
